Baltic Marshall — C4KD2 — position and weather

sailwx.info

Track history (hours):
 
Tides and Currents Weather Stations Pressure Air Temp Water Temp Dewpoint Dewpoint Depression Visibility Wind Speed Wind Dir Waves Ship Positions

Baltic Marshall

Last reported at 2015-Aug-01 17:33 UTC. Time now 2015-Aug-01 18:10 UTC.
Position N 57°49' E 010°42'.

Length 183 m; draft 11.3 m.

Type: Ship. MMSI: 212118000.

Date/timePositionNaut miles runAvg speedWind from/ knotsBaromVisibWave heightAir tempDewpointWater temp
2015-Aug-01 17:33N 57°49' E 010°42'1110.8
2015-Aug-01 16:33N 57°42' E 010°58'1212.2
2015-Aug-01 15:33N 57°34' E 011°14'1212.2
2015-Aug-01 14:33N 57°24' E 011°28'1313.0
2015-Aug-01 13:33N 57°12' E 011°36'1313.2
2015-Aug-01 12:33N 56°60' E 011°44'1312.8
2015-Aug-01 11:33N 56°47' E 011°52'1212.2
2015-Aug-01 10:33N 56°36' E 011°44'4212.3
2015-Aug-01 07:10N 56°00' E 011°05'1112.3
2015-Aug-01 06:18N 55°52' E 010°53'4611.0
2015-Aug-01 02:06N 55°06' E 010°59'611.1
2015-Aug-01 01:33N 54°60' E 010°59'1510.7
2015-Aug-01 00:07N 54°46' E 010°48'9 9.5
2015-Jul-31 23:13N 54°38' E 010°55'711.3
2015-Jul-31 22:33N 54°36' E 011°07'1211.7
2015-Jul-31 21:33N 54°31' E 011°26'1211.9
2015-Jul-31 20:33N 54°27' E 011°44'1212.1
2015-Jul-31 19:33N 54°26' E 012°05'1210.5
2015-Jul-31 18:26N 54°36' E 012°16'5012.0
2015-Jul-31 14:17N 54°58' E 013°35'912.4
2015-Jul-31 13:33N 55°01' E 013°50'1212.1
2015-Jul-31 12:33N 55°06' E 014°08'1312.7
2015-Jul-31 11:33N 55°16' E 014°22'1312.6
2015-Jul-31 10:33N 55°26' E 014°36'1111.2
2015-Jul-31 09:33N 55°18' E 014°51'3 3.4
2015-Jul-31 08:33N 55°20' E 014°57'1110.9
2015-Jul-31 07:33N 55°27' E 015°12'4 4.5
2015-Jul-31 06:33N 55°30' E 015°18'3 3.4
2015-Jul-31 05:33N 55°33' E 015°20'4 4.0
2015-Jul-31 04:33N 55°36' E 015°24'35211.3
2015-Jul-29 21:32N 59°38' E 023°21'1212.5
2015-Jul-29 20:33N 59°41' E 023°44'1312.4
2015-Jul-29 19:33N 59°45' E 024°08'1212.5
2015-Jul-29 18:33N 59°48' E 024°32'1312.7
2015-Jul-29 17:33N 59°50' E 024°56'1612.8
2015-Jul-29 16:18N 59°53' E 025°28'1012.8
2015-Jul-29 15:32N 59°55' E 025°47'1312.6
2015-Jul-29 14:29N 59°58' E 026°13'1212.5
2015-Jul-29 13:33N 60°01' E 026°35'1312.6
2015-Jul-29 12:29N 59°60' E 027°02'20 0.5
2015-Jul-27 20:11N 60°08' E 027°37'2213.2
2015-Jul-27 18:33N 59°58' E 026°59'1513.2
2015-Jul-27 17:23N 59°58' E 026°28'1313.4
2015-Jul-27 16:26N 59°55' E 026°03'3913.4
2015-Jul-27 13:32N 59°46' E 024°48'1713.3
2015-Jul-27 12:14N 59°42' E 024°15'913.5
2015-Jul-27 11:34N 59°39' E 023°57'1513.5
2015-Jul-27 10:27N 59°34' E 023°30'34513.1
2015-Jul-26 08:09N 55°41' E 015°35'814.0
2015-Jul-26 07:33N 55°37' E 015°22'1414.4
2015-Jul-26 06:33N 55°30' E 014°59'1414.1
2015-Jul-26 05:33N 55°23' E 014°38'1413.9
2015-Jul-26 04:33N 55°12' E 014°23'1413.8
2015-Jul-26 03:33N 55°10' E 013°59'1414.0
2015-Jul-26 02:33N 55°11' E 013°34'1413.9
2015-Jul-26 01:33N 55°13' E 013°10'1413.7
2015-Jul-26 00:33N 55°16' E 012°47'1010.4
2015-Jul-25 23:33N 55°25' E 012°40'1010.3
2015-Jul-25 22:34N 55°36' E 012°42'1211.5
2015-Jul-25 21:33N 55°47' E 012°42'1211.8
2015-Jul-25 20:33N 55°59' E 012°40'1110.7
2015-Jul-25 19:33N 56°08' E 012°29'1211.7
2015-Jul-25 18:34N 56°14' E 012°12'1313.1
2015-Jul-25 17:32N 56°26' E 012°00'1313.7
2015-Jul-25 16:33N 56°39' E 011°54'1313.4
2015-Jul-25 15:33N 56°52' E 011°48'1413.5
2015-Jul-25 14:33N 57°05' E 011°39'1313.0
2015-Jul-25 13:33N 57°17' E 011°31'1413.6
2015-Jul-25 12:33N 57°29' E 011°21'1413.9
2015-Jul-25 11:33N 57°39' E 011°02'1313.2
2015-Jul-25 10:33N 57°47' E 010°43'1413.6
2015-Jul-25 09:33N 57°48' E 010°18'1413.6
2015-Jul-25 08:33N 57°47' E 009°52'1413.3
2015-Jul-25 07:29N 57°41' E 009°28'2713.0
2015-Jul-25 05:26N 57°27' E 008°46'1112.7
2015-Jul-25 04:33N 57°20' E 008°30'1612.8
2015-Jul-25 03:18N 57°09' E 008°08'9112.9
2015-Jul-24 20:14N 55°49' E 006°49'1112.0
2015-Jul-24 19:21N 55°41' E 006°36'1313.5
2015-Jul-24 18:22N 55°29' E 006°25'8413.4
2015-Jul-24 12:07N 54°19' E 005°07'813.7
2015-Jul-24 11:33N 54°13' E 004°58'1413.6
2015-Jul-24 10:33N 54°04' E 004°41'7913.2
2015-Jul-24 04:31N 52°59' E 003°23'1313.2
2015-Jul-24 03:32N 52°46' E 003°18'1313.0
2015-Jul-24 02:33N 52°33' E 003°15'1812.8
2015-Jul-24 01:09N 52°16' E 003°10'812.6
2015-Jul-24 00:33N 52°08' E 003°08'1313.0
2015-Jul-23 23:33N 51°59' E 002°54'1513.5
2015-Jul-23 22:28N 51°48' E 002°38'1213.8
2015-Jul-23 21:33N 51°38' E 002°24'1414.4
2015-Jul-23 20:33N 51°27' E 002°10'1414.0
2015-Jul-23 19:33N 51°14' E 002°03'1515.0
2015-Jul-23 18:33N 51°05' E 001°43'1615.7
2015-Jul-23 17:33N 50°53' E 001°28'1515.1
2015-Jul-23 16:33N 50°39' E 001°17'1914.5
2015-Jul-23 15:13N 50°28' E 000°52'9315.2
2015-Jul-23 09:07N 50°03' W 001°28'1013.1
2015-Jul-23 08:20N 50°00' W 001°43'1212.0
2015-Jul-23 07:20N 49°58' W 002°02'1211.5
2015-Jul-23 06:17N 49°55' W 002°20'  
Track history (hours):
 
Tides and Currents Weather Stations Pressure Air Temp Water Temp Dewpoint Dewpoint Depression Visibility Wind Speed Wind Dir Waves Ship Positions

Baltic Marshall

Last reported at 2015-Aug-01 17:33 UTC. Time now 2015-Aug-01 18:10 UTC.
Position N 57°49' E 010°42'.

Length 183 m; draft 11.3 m.

Type: Ship. MMSI: 212118000.

Date/timePositionNaut miles runAvg speedWind from/ knotsBaromVisibWave heightAir tempDewpointWater temp
2015-Aug-01 17:33N 57°49' E 010°42'1110.8
2015-Aug-01 16:33N 57°42' E 010°58'1212.2
2015-Aug-01 15:33N 57°34' E 011°14'1212.2
2015-Aug-01 14:33N 57°24' E 011°28'1313.0
2015-Aug-01 13:33N 57°12' E 011°36'1313.2
2015-Aug-01 12:33N 56°60' E 011°44'1312.8
2015-Aug-01 11:33N 56°47' E 011°52'1212.2
2015-Aug-01 10:33N 56°36' E 011°44'4212.3
2015-Aug-01 07:10N 56°00' E 011°05'1112.3
2015-Aug-01 06:18N 55°52' E 010°53'4611.0
2015-Aug-01 02:06N 55°06' E 010°59'611.1
2015-Aug-01 01:33N 54°60' E 010°59'1510.7
2015-Aug-01 00:07N 54°46' E 010°48'9 9.5
2015-Jul-31 23:13N 54°38' E 010°55'711.3
2015-Jul-31 22:33N 54°36' E 011°07'1211.7
2015-Jul-31 21:33N 54°31' E 011°26'1211.9
2015-Jul-31 20:33N 54°27' E 011°44'1212.1
2015-Jul-31 19:33N 54°26' E 012°05'1210.5
2015-Jul-31 18:26N 54°36' E 012°16'5012.0
2015-Jul-31 14:17N 54°58' E 013°35'912.4
2015-Jul-31 13:33N 55°01' E 013°50'1212.1
2015-Jul-31 12:33N 55°06' E 014°08'1312.7
2015-Jul-31 11:33N 55°16' E 014°22'1312.6
2015-Jul-31 10:33N 55°26' E 014°36'1111.2
2015-Jul-31 09:33N 55°18' E 014°51'3 3.4
2015-Jul-31 08:33N 55°20' E 014°57'1110.9
2015-Jul-31 07:33N 55°27' E 015°12'4 4.5
2015-Jul-31 06:33N 55°30' E 015°18'3 3.4
2015-Jul-31 05:33N 55°33' E 015°20'4 4.0
2015-Jul-31 04:33N 55°36' E 015°24'35211.3
2015-Jul-29 21:32N 59°38' E 023°21'1212.5
2015-Jul-29 20:33N 59°41' E 023°44'1312.4
2015-Jul-29 19:33N 59°45' E 024°08'1212.5
2015-Jul-29 18:33N 59°48' E 024°32'1312.7
2015-Jul-29 17:33N 59°50' E 024°56'1612.8
2015-Jul-29 16:18N 59°53' E 025°28'1012.8
2015-Jul-29 15:32N 59°55' E 025°47'1312.6
2015-Jul-29 14:29N 59°58' E 026°13'1212.5
2015-Jul-29 13:33N 60°01' E 026°35'1312.6
2015-Jul-29 12:29N 59°60' E 027°02'20 0.5
2015-Jul-27 20:11N 60°08' E 027°37'2213.2
2015-Jul-27 18:33N 59°58' E 026°59'1513.2
2015-Jul-27 17:23N 59°58' E 026°28'1313.4
2015-Jul-27 16:26N 59°55' E 026°03'3913.4
2015-Jul-27 13:32N 59°46' E 024°48'1713.3
2015-Jul-27 12:14N 59°42' E 024°15'913.5
2015-Jul-27 11:34N 59°39' E 023°57'1513.5
2015-Jul-27 10:27N 59°34' E 023°30'34513.1
2015-Jul-26 08:09N 55°41' E 015°35'814.0
2015-Jul-26 07:33N 55°37' E 015°22'1414.4
2015-Jul-26 06:33N 55°30' E 014°59'1414.1
2015-Jul-26 05:33N 55°23' E 014°38'1413.9
2015-Jul-26 04:33N 55°12' E 014°23'1413.8
2015-Jul-26 03:33N 55°10' E 013°59'1414.0
2015-Jul-26 02:33N 55°11' E 013°34'1413.9
2015-Jul-26 01:33N 55°13' E 013°10'1413.7
2015-Jul-26 00:33N 55°16' E 012°47'1010.4
2015-Jul-25 23:33N 55°25' E 012°40'1010.3
2015-Jul-25 22:34N 55°36' E 012°42'1211.5
2015-Jul-25 21:33N 55°47' E 012°42'1211.8
2015-Jul-25 20:33N 55°59' E 012°40'1110.7
2015-Jul-25 19:33N 56°08' E 012°29'1211.7
2015-Jul-25 18:34N 56°14' E 012°12'1313.1
2015-Jul-25 17:32N 56°26' E 012°00'1313.7
2015-Jul-25 16:33N 56°39' E 011°54'1313.4
2015-Jul-25 15:33N 56°52' E 011°48'1413.5
2015-Jul-25 14:33N 57°05' E 011°39'1313.0
2015-Jul-25 13:33N 57°17' E 011°31'1413.6
2015-Jul-25 12:33N 57°29' E 011°21'1413.9
2015-Jul-25 11:33N 57°39' E 011°02'1313.2
2015-Jul-25 10:33N 57°47' E 010°43'1413.6
2015-Jul-25 09:33N 57°48' E 010°18'1413.6
2015-Jul-25 08:33N 57°47' E 009°52'1413.3
2015-Jul-25 07:29N 57°41' E 009°28'2713.0
2015-Jul-25 05:26N 57°27' E 008°46'1112.7
2015-Jul-25 04:33N 57°20' E 008°30'1612.8
2015-Jul-25 03:18N 57°09' E 008°08'9112.9
2015-Jul-24 20:14N 55°49' E 006°49'1112.0
2015-Jul-24 19:21N 55°41' E 006°36'1313.5
2015-Jul-24 18:22N 55°29' E 006°25'8413.4
2015-Jul-24 12:07N 54°19' E 005°07'813.7
2015-Jul-24 11:33N 54°13' E 004°58'1413.6
2015-Jul-24 10:33N 54°04' E 004°41'7913.2
2015-Jul-24 04:31N 52°59' E 003°23'1313.2
2015-Jul-24 03:32N 52°46' E 003°18'1313.0
2015-Jul-24 02:33N 52°33' E 003°15'1812.8
2015-Jul-24 01:09N 52°16' E 003°10'812.6
2015-Jul-24 00:33N 52°08' E 003°08'1313.0
2015-Jul-23 23:33N 51°59' E 002°54'1513.5
2015-Jul-23 22:28N 51°48' E 002°38'1213.8
2015-Jul-23 21:33N 51°38' E 002°24'1414.4
2015-Jul-23 20:33N 51°27' E 002°10'1414.0
2015-Jul-23 19:33N 51°14' E 002°03'1515.0
2015-Jul-23 18:33N 51°05' E 001°43'1615.7
2015-Jul-23 17:33N 50°53' E 001°28'1515.1
2015-Jul-23 16:33N 50°39' E 001°17'1914.5
2015-Jul-23 15:13N 50°28' E 000°52'9315.2
2015-Jul-23 09:07N 50°03' W 001°28'1013.1
2015-Jul-23 08:20N 50°00' W 001°43'1212.0
2015-Jul-23 07:20N 49°58' W 002°02'1211.5
2015-Jul-23 06:17N 49°55' W 002°20'  

Dump ship's entire track history